createdAt,value
2018-12-19T00:00:53.398Z,100350.08
2018-12-19T00:03:21.762Z,100339.34
2018-12-19T00:05:50.084Z,100331.06
2018-12-19T00:08:18.796Z,100332.24
2018-12-19T00:10:47.145Z,100330.78
2018-12-19T00:13:15.960Z,100323.53
2018-12-19T00:15:44.345Z,100326.55
2018-12-19T00:18:13.489Z,100323.77
2018-12-19T00:20:41.807Z,100329.61
2018-12-19T00:23:10.211Z,100327.45
2018-12-19T00:25:39.185Z,100323.97
2018-12-19T00:28:07.555Z,100337.06
2018-12-19T00:30:36.051Z,100329.19
2018-12-19T00:33:04.475Z,100328.34
2018-12-19T00:35:33.033Z,100327.03
2018-12-19T00:38:01.406Z,100327.59
2018-12-19T00:40:29.817Z,100316.03
2018-12-19T00:42:58.189Z,100317.35
2018-12-19T00:45:26.517Z,100304.05
2018-12-19T00:47:54.892Z,100303.82
2018-12-19T00:50:23.302Z,100303.62
2018-12-19T00:52:51.645Z,100300.34
2018-12-19T00:55:20.115Z,100296.38
2018-12-19T00:57:48.491Z,100283.97
2018-12-19T01:00:17.620Z,100288.92
2018-12-19T01:02:45.966Z,100293.23
2018-12-19T01:05:14.748Z,100293.58
2018-12-19T01:07:43.617Z,100287.40
2018-12-19T01:10:11.969Z,100285.73
2018-12-19T01:12:41.557Z,100288.30
2018-12-19T01:15:09.990Z,100292.90
2018-12-19T01:17:38.521Z,100299.72
2018-12-19T01:20:07.217Z,100304.27
2018-12-19T01:22:35.538Z,100296.38
2018-12-19T01:25:04.691Z,100286.62
2018-12-19T01:27:33.062Z,100290.05
2018-12-19T01:30:01.724Z,100303.62
2018-12-19T01:32:30.150Z,100290.05
2018-12-19T01:34:58.477Z,100294.02
2018-12-19T01:37:26.820Z,100312.47
2018-12-19T01:39:55.182Z,100307.95
2018-12-19T01:42:23.518Z,100314.38
2018-12-19T01:44:51.893Z,100313.73
2018-12-19T01:47:20.240Z,100306.48
2018-12-19T01:49:48.687Z,100313.25
2018-12-19T01:52:17.039Z,100310.11
2018-12-19T01:54:45.394Z,100308.93
2018-12-19T01:57:13.906Z,100300.36
2018-12-19T01:59:42.241Z,100299.38
2018-12-19T02:02:10.833Z,100294.72
2018-12-19T02:04:41.270Z,100297.36
2018-12-19T02:07:09.732Z,100283.92
2018-12-19T02:09:38.097Z,100276.88
2018-12-19T02:12:06.504Z,100279.46
2018-12-19T02:14:34.924Z,100274.45
2018-12-19T02:17:03.280Z,100279.75
2018-12-19T02:19:31.617Z,100290.59
2018-12-19T02:22:00.019Z,100278.97
2018-12-19T02:24:28.377Z,100272.55
2018-12-19T02:26:56.713Z,100277.99
2018-12-19T02:29:25.062Z,100290.89
2018-12-19T02:31:53.415Z,100285.02
2018-12-19T02:34:21.766Z,100281.96
2018-12-19T02:36:50.126Z,100277.21
2018-12-19T02:39:18.777Z,100281.53
2018-12-19T02:41:47.125Z,100280.64
2018-12-19T02:44:15.740Z,100273.24
2018-12-19T02:46:44.073Z,100271.72
2018-12-19T02:49:12.400Z,100261.74
2018-12-19T02:51:41.693Z,100268.08
2018-12-19T02:54:11.131Z,100267.54
2018-12-19T02:56:40.268Z,100274.69
2018-12-19T02:59:08.674Z,100268.71
2018-12-19T03:01:37.049Z,100264.44
2018-12-19T03:04:05.390Z,100263.97
2018-12-19T03:06:33.724Z,100266.95
2018-12-19T03:09:02.077Z,100259.81
2018-12-19T03:11:30.389Z,100256.56
2018-12-19T03:13:58.817Z,100259.17
2018-12-19T03:16:27.157Z,100251.86
2018-12-19T03:18:55.526Z,100242.45
2018-12-19T03:21:23.891Z,100247.69
2018-12-19T03:23:52.233Z,100258.39
2018-12-19T03:26:20.823Z,100263.77
2018-12-19T03:28:49.187Z,100249.67
2018-12-19T03:31:17.625Z,100256.69
2018-12-19T03:33:46.054Z,100251.25
2018-12-19T03:36:14.807Z,100259.78
2018-12-19T03:38:43.154Z,100257.02
2018-12-19T03:41:11.494Z,100259.17
2018-12-19T03:43:39.858Z,100253.30
2018-12-19T03:46:08.304Z,100249.52
2018-12-19T03:48:38.067Z,100250.08
2018-12-19T03:51:06.410Z,100239.53
2018-12-19T03:53:34.766Z,100244.06
2018-12-19T03:56:03.095Z,100251.80
2018-12-19T03:58:31.428Z,100249.88
2018-12-19T04:01:00.232Z,100259.48
2018-12-19T04:03:28.609Z,100254.19
2018-12-19T04:05:56.994Z,100252.52
2018-12-19T04:08:25.370Z,100249.45
2018-12-19T04:10:53.710Z,100238.25
2018-12-19T04:13:22.081Z,100239.30
2018-12-19T04:15:50.421Z,100240.27
2018-12-19T04:18:18.775Z,100235.03
2018-12-19T04:20:47.119Z,100228.02
2018-12-19T04:23:16.039Z,100221.53
2018-12-19T04:25:44.388Z,100243.89
2018-12-19T04:28:12.774Z,100241.61
2018-12-19T04:30:41.145Z,100249.64
2018-12-19T04:33:09.489Z,100245.91
2018-12-19T04:35:38.609Z,100237.81
2018-12-19T04:38:06.958Z,100236.41
2018-12-19T04:40:35.278Z,100229.05
2018-12-19T04:43:04.700Z,100231.89
2018-12-19T04:45:33.053Z,100228.05
2018-12-19T04:48:01.401Z,100225.69
2018-12-19T04:50:29.728Z,100226.59
2018-12-19T04:52:58.077Z,100219.56
2018-12-19T04:55:26.453Z,100224.02
2018-12-19T04:57:54.800Z,100224.28
2018-12-19T05:00:23.153Z,100225.03
2018-12-19T05:02:51.499Z,100219.09
2018-12-19T05:05:19.842Z,100226.45
2018-12-19T05:07:48.176Z,100228.01
2018-12-19T05:10:17.878Z,100219.11
2018-12-19T05:12:46.283Z,100219.85
2018-12-19T05:15:15.209Z,100216.52
2018-12-19T05:17:44.023Z,100220.05
2018-12-19T05:20:12.926Z,100214.36
2018-12-19T05:22:41.264Z,100224.48
2018-12-19T05:25:13.014Z,100234.22
2018-12-19T05:27:41.396Z,100228.73
2018-12-19T05:30:09.877Z,100226.80
2018-12-19T05:32:38.240Z,100236.57
2018-12-19T05:35:06.811Z,100230.25
2018-12-19T05:37:35.222Z,100225.20
2018-12-19T05:40:04.910Z,100238.88
2018-12-19T05:42:33.239Z,100242.47
2018-12-19T05:45:02.314Z,100241.28
2018-12-19T05:47:30.815Z,100242.52
2018-12-19T05:49:59.227Z,100241.01
2018-12-19T05:52:27.633Z,100233.55
2018-12-19T05:54:56.043Z,100231.64
2018-12-19T05:57:24.393Z,100234.85
2018-12-19T05:59:52.744Z,100226.08
2018-12-19T06:02:21.106Z,100218.72
2018-12-19T06:04:49.438Z,100223.99
2018-12-19T06:07:17.801Z,100220.81
2018-12-19T06:09:46.139Z,100222.67
2018-12-19T06:12:14.835Z,100228.69
2018-12-19T06:14:43.238Z,100220.36
2018-12-19T06:17:11.585Z,100232.37
2018-12-19T06:19:39.897Z,100234.67
2018-12-19T06:22:08.298Z,100234.06
2018-12-19T06:24:36.616Z,100224.53
2018-12-19T06:27:05.031Z,100229.64
2018-12-19T06:29:33.379Z,100232.52
2018-12-19T06:32:01.732Z,100222.42
2018-12-19T06:34:30.075Z,100229.98
2018-12-19T06:36:58.439Z,100229.02
2018-12-19T06:39:27.070Z,100227.66
2018-12-19T06:41:55.425Z,100230.37
2018-12-19T06:44:23.796Z,100222.94
2018-12-19T06:46:52.140Z,100220.44
2018-12-19T06:49:20.478Z,100219.72
2018-12-19T06:51:48.827Z,100225.80
2018-12-19T06:54:17.304Z,100228.04
2018-12-19T06:56:45.672Z,100219.53
2018-12-19T06:59:13.996Z,100212.08
2018-12-19T07:01:42.381Z,100204.52
2018-12-19T07:04:10.735Z,100200.20
2018-12-19T07:06:39.167Z,100193.84
2018-12-19T07:09:07.970Z,100210.55
2018-12-19T07:11:36.342Z,100218.02
2018-12-19T07:14:04.669Z,100234.38
2018-12-19T07:16:33.015Z,100244.63
2018-12-19T07:19:01.347Z,100248.72
2018-12-19T07:21:29.702Z,100241.64
2018-12-19T07:23:58.059Z,100243.17
2018-12-19T07:26:26.379Z,100246.20
2018-12-19T07:28:54.726Z,100245.16
2018-12-19T07:31:23.131Z,100246.23
2018-12-19T07:33:51.465Z,100241.20
2018-12-19T07:36:19.810Z,100242.50
2018-12-19T07:38:48.140Z,100238.01
2018-12-19T07:41:17.847Z,100233.02
2018-12-19T07:43:46.759Z,100233.77
2018-12-19T07:46:19.779Z,100242.44
2018-12-19T07:48:45.591Z,100245.63
2018-12-19T07:51:14.022Z,100245.03
2018-12-19T07:53:42.364Z,100240.20
2018-12-19T07:56:10.821Z,100237.55
2018-12-19T07:58:39.176Z,100242.69
2018-12-19T08:01:07.691Z,100239.72
2018-12-19T08:03:36.082Z,100244.53
2018-12-19T08:06:04.476Z,100239.05
2018-12-19T08:08:32.923Z,100250.20
2018-12-19T08:11:01.378Z,100239.95
2018-12-19T08:13:29.735Z,100238.55
2018-12-19T08:15:58.064Z,100241.58
2018-12-19T08:18:26.423Z,100247.25
2018-12-19T08:20:54.772Z,100247.17
2018-12-19T08:23:23.149Z,100242.03
2018-12-19T08:25:51.459Z,100248.81
2018-12-19T08:28:19.851Z,100240.27
2018-12-19T08:30:48.183Z,100242.59
2018-12-19T08:33:16.550Z,100251.55
2018-12-19T08:35:44.876Z,100259.16
2018-12-19T08:38:13.219Z,100262.33
2018-12-19T08:40:41.604Z,100264.17
2018-12-19T08:43:10.057Z,100273.45
2018-12-19T08:45:38.813Z,100277.44
2018-12-19T08:48:07.244Z,100279.42
2018-12-19T08:50:35.550Z,100278.23
2018-12-19T08:53:03.898Z,100280.02
2018-12-19T08:55:32.253Z,100277.02
2018-12-19T08:58:00.586Z,100287.52
2018-12-19T09:00:28.927Z,100284.20
2018-12-19T09:02:58.165Z,100282.77
2018-12-19T09:05:26.583Z,100285.70
2018-12-19T09:07:54.957Z,100285.09
2018-12-19T09:10:23.303Z,100281.09
2018-12-19T09:12:51.701Z,100273.89
2018-12-19T09:15:27.522Z,100281.97
2018-12-19T09:17:52.349Z,100278.03
2018-12-19T09:20:20.758Z,100283.34
2018-12-19T09:22:49.253Z,100279.36
2018-12-19T09:25:17.600Z,100281.03
2018-12-19T09:27:46.098Z,100285.35
2018-12-19T09:30:14.427Z,100290.72
2018-12-19T09:32:42.795Z,100295.90
2018-12-19T09:35:11.729Z,100298.27
2018-12-19T09:37:40.045Z,100291.27
2018-12-19T09:40:09.865Z,100290.37
2018-12-19T09:42:38.157Z,100292.61
2018-12-19T09:45:06.598Z,100285.77
2018-12-19T09:47:34.919Z,100291.50
2018-12-19T09:50:04.217Z,100298.19
2018-12-19T09:52:32.546Z,100295.53
2018-12-19T09:55:00.885Z,100296.80
2018-12-19T09:57:29.393Z,100283.66
2018-12-19T09:59:57.758Z,100286.06
2018-12-19T10:02:26.157Z,100286.94
2018-12-19T10:04:54.511Z,100288.58
2018-12-19T10:07:22.947Z,100298.03
2018-12-19T10:09:51.312Z,100291.16
2018-12-19T10:12:19.627Z,100290.25
2018-12-19T10:14:47.960Z,100290.74
2018-12-19T10:17:16.311Z,100293.76
2018-12-19T10:19:44.650Z,100288.24
2018-12-19T10:22:14.923Z,100275.56
2018-12-19T10:24:47.149Z,100286.48
2018-12-19T10:27:17.464Z,100291.54
2018-12-19T10:29:45.843Z,100271.30
2018-12-19T10:32:14.158Z,100268.06
2018-12-19T10:34:43.077Z,100265.35
2018-12-19T10:37:11.400Z,100256.78
2018-12-19T10:39:39.769Z,100267.66
2018-12-19T10:42:08.397Z,100258.52
2018-12-19T10:44:36.819Z,100267.41
2018-12-19T10:47:05.152Z,100268.25
2018-12-19T10:49:33.533Z,100272.22
2018-12-19T10:52:01.871Z,100266.65
2018-12-19T10:54:30.226Z,100277.20
2018-12-19T10:56:58.589Z,100264.82
2018-12-19T10:59:26.945Z,100259.48
2018-12-19T11:01:56.127Z,100251.39
2018-12-19T11:04:25.092Z,100242.09
2018-12-19T11:06:54.510Z,100229.94
2018-12-19T11:09:23.341Z,100245.08
2018-12-19T11:11:52.377Z,100241.95
2018-12-19T11:14:21.418Z,100243.81
2018-12-19T11:16:49.757Z,100240.82
2018-12-19T11:19:18.076Z,100248.05
2018-12-19T11:21:46.510Z,100244.13
2018-12-19T11:24:14.820Z,100242.74
2018-12-19T11:26:43.237Z,100236.72
2018-12-19T11:29:11.572Z,100237.78
2018-12-19T11:31:39.916Z,100239.75
2018-12-19T11:34:08.611Z,100240.61
2018-12-19T11:36:36.930Z,100237.32
2018-12-19T11:39:06.770Z,100237.54
2018-12-19T11:41:38.981Z,100237.48
2018-12-19T11:44:05.721Z,100230.73
2018-12-19T11:46:34.477Z,100231.41
2018-12-19T11:49:02.899Z,100219.92
2018-12-19T11:51:31.253Z,100217.13
2018-12-19T11:53:59.557Z,100211.73
2018-12-19T11:56:27.911Z,100214.91
2018-12-19T11:58:56.279Z,100211.59
2018-12-19T12:01:24.603Z,100209.66
2018-12-19T12:03:52.919Z,100215.66
2018-12-19T12:06:21.301Z,100213.98
2018-12-19T12:08:49.633Z,100211.17
2018-12-19T12:11:17.978Z,100204.16
2018-12-19T12:13:46.330Z,100211.83
2018-12-19T12:16:14.717Z,100202.47
2018-12-19T12:18:43.137Z,100205.50
2018-12-19T12:21:11.455Z,100201.16
2018-12-19T12:23:39.815Z,100202.49
2018-12-19T12:26:08.144Z,100192.84
2018-12-19T12:28:36.540Z,100186.82
2018-12-19T12:31:05.015Z,100188.16
2018-12-19T12:33:33.391Z,100183.00
2018-12-19T12:36:02.013Z,100180.02
2018-12-19T12:38:34.084Z,100177.11
2018-12-19T12:41:00.748Z,100175.59
2018-12-19T12:43:29.134Z,100170.96
2018-12-19T12:45:57.425Z,100175.06
2018-12-19T12:48:25.810Z,100174.98
2018-12-19T12:50:54.131Z,100172.70
2018-12-19T12:53:22.497Z,100171.85
2018-12-19T12:55:50.823Z,100170.03
2018-12-19T12:58:19.181Z,100164.51
2018-12-19T13:00:47.510Z,100166.51
2018-12-19T13:03:15.917Z,100161.50
2018-12-19T13:05:44.266Z,100163.52
2018-12-19T13:08:12.707Z,100160.20
2018-12-19T13:10:41.021Z,100152.55
2018-12-19T13:13:09.600Z,100145.22
2018-12-19T13:15:40.696Z,100137.90
2018-12-19T13:18:09.995Z,100138.40
2018-12-19T13:20:38.329Z,100138.06
2018-12-19T13:23:06.721Z,100138.86
2018-12-19T13:25:35.043Z,100138.74
2018-12-19T13:28:03.412Z,100135.05
2018-12-19T13:30:31.748Z,100123.25
2018-12-19T13:33:00.071Z,100122.08
2018-12-19T13:35:28.424Z,100128.59
2018-12-19T13:37:56.774Z,100118.76
2018-12-19T13:40:25.131Z,100120.70
2018-12-19T13:42:53.460Z,100132.19
2018-12-19T13:45:21.813Z,100123.67
2018-12-19T13:47:50.145Z,100127.51
2018-12-19T13:50:18.700Z,100129.89
2018-12-19T13:52:47.044Z,100135.70
2018-12-19T13:55:15.389Z,100143.03
2018-12-19T13:57:43.713Z,100129.55
2018-12-19T14:00:12.913Z,100136.23
2018-12-19T14:02:41.254Z,100137.53
2018-12-19T14:05:11.306Z,100138.34
2018-12-19T14:07:39.640Z,100129.58
2018-12-19T14:10:09.168Z,100132.23
2018-12-19T14:12:37.498Z,100124.91
2018-12-19T14:15:06.779Z,100130.39
2018-12-19T14:17:35.115Z,100124.42
2018-12-19T14:20:05.078Z,100120.43
2018-12-19T14:22:33.405Z,100126.59
2018-12-19T14:25:01.762Z,100115.92
2018-12-19T14:27:30.076Z,100114.27
2018-12-19T14:29:58.440Z,100105.95
2018-12-19T14:32:26.770Z,100102.27
2018-12-19T14:34:55.140Z,100101.11
2018-12-19T14:37:23.458Z,100091.95
2018-12-19T14:39:51.804Z,100084.78
2018-12-19T14:42:20.137Z,100088.97
2018-12-19T14:44:48.491Z,100083.97
2018-12-19T14:47:16.836Z,100090.46
2018-12-19T14:49:45.208Z,100086.31
2018-12-19T14:52:13.520Z,100088.63
2018-12-19T14:54:41.881Z,100089.45
2018-12-19T14:57:10.303Z,100090.98
2018-12-19T14:59:38.665Z,100096.28
2018-12-19T15:02:08.386Z,100103.30
2018-12-19T15:04:36.738Z,100111.44
2018-12-19T15:07:05.070Z,100125.91
2018-12-19T15:09:33.429Z,100128.91
2018-12-19T15:12:01.795Z,100133.75
2018-12-19T15:14:30.118Z,100126.75
2018-12-19T15:16:58.471Z,100128.59
2018-12-19T15:19:26.810Z,100129.91
2018-12-19T15:21:55.173Z,100123.08
2018-12-19T15:24:23.540Z,100111.94
2018-12-19T15:26:51.961Z,100112.94
2018-12-19T15:29:20.339Z,100116.28
2018-12-19T15:31:48.674Z,100113.62
2018-12-19T15:34:17.075Z,100116.91
2018-12-19T15:36:45.422Z,100114.61
2018-12-19T15:39:13.776Z,100124.42
2018-12-19T15:41:42.157Z,100121.08
2018-12-19T15:44:10.565Z,100115.92
2018-12-19T15:46:38.897Z,100118.94
2018-12-19T15:49:07.223Z,100121.55
2018-12-19T15:51:35.644Z,100125.69
2018-12-19T15:54:04.073Z,100129.19
2018-12-19T15:56:32.518Z,100135.89
2018-12-19T15:59:00.840Z,100127.39
2018-12-19T16:01:29.601Z,100130.42
2018-12-19T16:03:57.941Z,100119.59
2018-12-19T16:06:26.302Z,100126.23
2018-12-19T16:08:54.632Z,100123.23
2018-12-19T16:11:23.504Z,100126.06
2018-12-19T16:13:51.835Z,100132.08
2018-12-19T16:16:20.252Z,100132.90
2018-12-19T16:18:48.595Z,100134.90
2018-12-19T16:21:17.160Z,100131.59
2018-12-19T16:23:45.465Z,100133.08
2018-12-19T16:26:14.179Z,100139.89
2018-12-19T16:28:42.489Z,100138.56
2018-12-19T16:31:10.844Z,100143.23
2018-12-19T16:33:39.175Z,100143.91
2018-12-19T16:36:07.635Z,100144.89
2018-12-19T16:38:36.045Z,100151.90
2018-12-19T16:41:04.398Z,100142.89
2018-12-19T16:43:32.746Z,100139.55
2018-12-19T16:46:01.223Z,100146.89
2018-12-19T16:48:29.584Z,100150.73
2018-12-19T16:50:57.918Z,100153.72
2018-12-19T16:53:26.968Z,100141.58
2018-12-19T16:55:55.299Z,100139.41
2018-12-19T16:58:23.699Z,100136.73
2018-12-19T17:00:52.004Z,100128.75
2018-12-19T17:03:20.355Z,100121.91
2018-12-19T17:05:48.681Z,100123.91
2018-12-19T17:08:17.048Z,100126.75
2018-12-19T17:10:45.416Z,100122.92
2018-12-19T17:13:13.769Z,100128.20
2018-12-19T17:15:42.106Z,100124.90
2018-12-19T17:18:10.656Z,100125.42
2018-12-19T17:20:39.004Z,100118.76
2018-12-19T17:23:07.432Z,100124.41
2018-12-19T17:25:35.772Z,100125.14
2018-12-19T17:28:04.219Z,100128.33
2018-12-19T17:30:32.569Z,100127.80
2018-12-19T17:33:00.917Z,100117.16
2018-12-19T17:35:29.268Z,100117.33
2018-12-19T17:37:57.626Z,100107.52
2018-12-19T17:40:26.015Z,100113.14
2018-12-19T17:42:59.436Z,100122.38
2018-12-19T17:45:24.791Z,100122.50
2018-12-19T17:47:53.130Z,100123.12
2018-12-19T17:50:21.474Z,100115.60
2018-12-19T17:52:49.865Z,100121.25
2018-12-19T17:55:18.274Z,100119.59
2018-12-19T17:57:46.702Z,100127.27
2018-12-19T18:00:15.831Z,100119.84
2018-12-19T18:02:44.133Z,100117.69
2018-12-19T18:05:12.712Z,100116.06
2018-12-19T18:07:41.033Z,100109.13
2018-12-19T18:10:09.386Z,100115.77
2018-12-19T18:12:37.738Z,100111.75
2018-12-19T18:15:06.152Z,100105.63
2018-12-19T18:17:34.600Z,100112.91
2018-12-19T18:20:04.454Z,100112.91
2018-12-19T18:22:32.763Z,100116.06
2018-12-19T18:25:01.117Z,100114.11
2018-12-19T18:27:30.406Z,100110.75
2018-12-19T18:29:58.754Z,100112.08
2018-12-19T18:32:27.093Z,100106.27
2018-12-19T18:34:55.450Z,100098.08
2018-12-19T18:37:23.786Z,100090.27
2018-12-19T18:39:52.226Z,100078.20
2018-12-19T18:42:20.585Z,100086.16
2018-12-19T18:44:48.936Z,100080.30
2018-12-19T18:47:17.621Z,100074.35
2018-12-19T18:49:45.970Z,100078.20
2018-12-19T18:52:14.575Z,100076.21
2018-12-19T18:54:42.917Z,100081.20
2018-12-19T18:57:13.244Z,100074.02
2018-12-19T18:59:41.797Z,100071.20
2018-12-19T19:02:10.134Z,100065.55
2018-12-19T19:04:38.481Z,100064.91
2018-12-19T19:07:06.854Z,100057.27
2018-12-19T19:09:35.269Z,100059.56
2018-12-19T19:12:04.589Z,100057.57
2018-12-19T19:14:33.173Z,100065.55
2018-12-19T19:17:01.520Z,100058.56
2018-12-19T19:19:29.939Z,100067.57
2018-12-19T19:21:58.261Z,100062.75
2018-12-19T19:24:26.646Z,100063.77
2018-12-19T19:26:55.105Z,100067.45
2018-12-19T19:29:23.522Z,100071.08
2018-12-19T19:31:51.891Z,100074.59
2018-12-19T19:34:24.962Z,100077.06
2018-12-19T19:36:50.630Z,100069.79
2018-12-19T19:39:18.955Z,100070.10
2018-12-19T19:41:47.359Z,100069.96
2018-12-19T19:44:15.840Z,100061.81
2018-12-19T19:46:45.536Z,100067.98
2018-12-19T19:49:14.452Z,100063.86
2018-12-19T19:51:42.840Z,100068.66
2018-12-19T19:54:11.233Z,100062.36
2018-12-19T19:56:39.547Z,100057.18
2018-12-19T19:59:07.894Z,100063.52
2018-12-19T20:01:36.390Z,100071.94
2018-12-19T20:04:05.272Z,100076.45
2018-12-19T20:06:33.630Z,100087.63
2018-12-19T20:09:01.972Z,100083.97
2018-12-19T20:11:30.318Z,100086.58
2018-12-19T20:13:58.648Z,100089.47
2018-12-19T20:16:27.006Z,100088.96
2018-12-19T20:18:55.372Z,100095.78
2018-12-19T20:21:23.719Z,100091.63
2018-12-19T20:23:52.039Z,100095.28
2018-12-19T20:26:20.386Z,100084.80
2018-12-19T20:28:48.804Z,100082.75
2018-12-19T20:31:17.117Z,100084.86
2018-12-19T20:33:45.473Z,100081.70
2018-12-19T20:36:13.995Z,100086.52
2018-12-19T20:38:42.285Z,100079.04
2018-12-19T20:41:10.731Z,100080.50
2018-12-19T20:43:40.010Z,100071.39
2018-12-19T20:46:08.697Z,100064.92
2018-12-19T20:48:37.054Z,100063.08
2018-12-19T20:51:05.415Z,100065.55
2018-12-19T20:53:33.864Z,100066.52
2018-12-19T20:56:03.912Z,100072.83
2018-12-19T20:58:32.380Z,100067.54
2018-12-19T21:01:00.880Z,100070.20
2018-12-19T21:03:29.239Z,100066.57
2018-12-19T21:05:57.554Z,100064.46
2018-12-19T21:08:25.922Z,100063.77
2018-12-19T21:10:54.263Z,100069.06
2018-12-19T21:13:22.645Z,100070.89
2018-12-19T21:15:50.988Z,100069.80
2018-12-19T21:18:21.991Z,100074.08
2018-12-19T21:20:50.318Z,100076.11
2018-12-19T21:23:18.713Z,100068.59
2018-12-19T21:25:47.038Z,100062.86
2018-12-19T21:28:15.377Z,100063.94
2018-12-19T21:30:43.781Z,100073.70
2018-12-19T21:33:14.206Z,100060.58
2018-12-19T21:35:42.843Z,100064.06
2018-12-19T21:38:11.270Z,100063.98
2018-12-19T21:40:39.679Z,100059.50
2018-12-19T21:43:08.374Z,100046.73
2018-12-19T21:45:36.789Z,100042.05
2018-12-19T21:48:05.188Z,100044.55
2018-12-19T21:50:33.587Z,100050.33
2018-12-19T21:53:02.089Z,100051.02
2018-12-19T21:55:30.465Z,100041.83
2018-12-19T21:57:58.805Z,100043.09
2018-12-19T22:00:27.670Z,100033.67
2018-12-19T22:02:56.126Z,100040.93
2018-12-19T22:05:24.583Z,100042.80
2018-12-19T22:07:52.992Z,100032.02
2018-12-19T22:10:21.397Z,100042.47
2018-12-19T22:12:49.763Z,100044.20
2018-12-19T22:15:18.315Z,100045.19
2018-12-19T22:17:47.050Z,100043.48
2018-12-19T22:20:15.942Z,100038.27
2018-12-19T22:22:44.358Z,100033.50
2018-12-19T22:25:13.276Z,100039.36
2018-12-19T22:27:41.699Z,100039.73
2018-12-19T22:30:10.218Z,100039.59
2018-12-19T22:32:38.561Z,100034.30
2018-12-19T22:35:06.994Z,100046.30
2018-12-19T22:37:35.368Z,100045.98
2018-12-19T22:40:06.154Z,100040.98
2018-12-19T22:42:34.541Z,100048.16
2018-12-19T22:45:03.373Z,100043.02
2018-12-19T22:47:31.813Z,100035.67
2018-12-19T22:50:00.823Z,100041.18
2018-12-19T22:52:29.373Z,100039.85
2018-12-19T22:54:57.812Z,100041.83
2018-12-19T22:57:26.188Z,100038.33
2018-12-19T22:59:54.672Z,100036.01
2018-12-19T23:02:25.679Z,100038.66
2018-12-19T23:04:54.061Z,100035.52
2018-12-19T23:07:22.463Z,100040.35
2018-12-19T23:09:50.842Z,100041.99
2018-12-19T23:12:19.311Z,100038.17
2018-12-19T23:14:47.795Z,100036.49
2018-12-19T23:17:19.929Z,100036.03
2018-12-19T23:19:48.398Z,100040.31
2018-12-19T23:22:16.835Z,100040.83
2018-12-19T23:24:45.228Z,100038.01
2018-12-19T23:27:13.741Z,100038.02
2018-12-19T23:29:42.155Z,100043.18
2018-12-19T23:32:10.597Z,100040.66
2018-12-19T23:34:39.419Z,100029.85
2018-12-19T23:37:08.553Z,100035.85
2018-12-19T23:39:37.075Z,100035.84
2018-12-19T23:42:05.527Z,100029.36
2018-12-19T23:44:33.963Z,100025.67
2018-12-19T23:47:02.562Z,100030.14
2018-12-19T23:49:30.964Z,100024.90
2018-12-19T23:51:59.327Z,100024.77
2018-12-19T23:54:29.152Z,100031.40
2018-12-19T23:56:57.891Z,100023.42
2018-12-19T23:59:26.320Z,100028.58
